createdAt,value
2019-04-23T00:00:05.547Z,17.34
2019-04-23T00:01:23.604Z,17.31
2019-04-23T00:02:39.360Z,17.31
2019-04-23T00:03:40.318Z,17.25
2019-04-23T00:04:48.011Z,17.22
2019-04-23T00:05:55.161Z,17.19
2019-04-23T00:07:07.905Z,17.17
2019-04-23T00:08:09.577Z,17.16
2019-04-23T00:09:26.059Z,17.16
2019-04-23T00:10:19.483Z,17.16
2019-04-23T00:11:26.033Z,17.18
2019-04-23T00:12:38.440Z,17.16
2019-04-23T00:13:39.364Z,17.16
2019-04-23T00:14:50.202Z,17.15
2019-04-23T00:16:03.073Z,17.14
2019-04-23T00:17:04.513Z,17.13
2019-04-23T00:18:13.912Z,17.14
2019-04-23T00:19:18.634Z,17.12
2019-04-23T00:20:23.553Z,17.13
2019-04-23T00:21:38.165Z,17.10
2019-04-23T00:23:09.329Z,17.09
2019-04-23T00:24:17.433Z,17.10
2019-04-23T00:26:42.949Z,17.04
2019-04-23T00:27:37.225Z,17.02
2019-04-23T00:28:44.606Z,16.99
2019-04-23T00:29:53.637Z,16.98
2019-04-23T00:31:59.619Z,16.96
2019-04-23T00:33:05.335Z,16.96
2019-04-23T00:34:09.395Z,16.97
2019-04-23T00:35:12.895Z,16.95
2019-04-23T00:36:27.256Z,16.93
2019-04-23T00:39:41.002Z,16.90
2019-04-23T00:40:47.228Z,16.91
2019-04-23T00:41:50.869Z,16.87
2019-04-23T00:42:53.548Z,16.85
2019-04-23T00:44:01.980Z,16.85
2019-04-23T00:45:10.520Z,16.85
2019-04-23T00:46:15.568Z,16.82
2019-04-23T00:47:25.630Z,16.81
2019-04-23T00:48:35.059Z,16.84
2019-04-23T00:49:37.115Z,16.80
2019-04-23T00:50:46.557Z,16.78
2019-04-23T00:52:50.678Z,16.76
2019-04-23T00:53:56.731Z,16.75
2019-04-23T00:55:12.824Z,16.74
2019-04-23T00:56:26.578Z,16.74
2019-04-23T00:57:24.367Z,16.73
2019-04-23T00:58:30.170Z,16.72
2019-04-23T00:59:31.044Z,16.74
2019-04-23T01:02:52.859Z,16.67
2019-04-23T01:03:53.040Z,16.65
2019-04-23T01:05:04.752Z,16.65
2019-04-23T01:06:06.423Z,16.62
2019-04-23T01:07:11.066Z,16.61
2019-04-23T01:08:24.030Z,16.60
2019-04-23T01:09:29.396Z,16.58
2019-04-23T01:11:01.928Z,16.59
2019-04-23T01:12:15.956Z,16.59
2019-04-23T01:13:14.751Z,16.54
2019-04-23T01:14:20.243Z,16.50
2019-04-23T01:15:32.876Z,16.49
2019-04-23T01:16:32.980Z,16.48
2019-04-23T01:18:58.251Z,16.47
2019-04-23T01:20:08.126Z,16.47
2019-04-23T01:21:01.070Z,16.46
2019-04-23T01:22:06.435Z,16.44
2019-04-23T01:23:54.916Z,16.44
2019-04-23T01:25:11.083Z,16.44
2019-04-23T01:26:23.984Z,16.39
2019-04-23T01:27:46.109Z,16.37
2019-04-23T01:28:57.368Z,16.38
2019-04-23T01:29:57.897Z,16.38
2019-04-23T01:31:02.559Z,16.38
2019-04-23T01:32:14.847Z,16.35
2019-04-23T01:33:11.000Z,16.36
2019-04-23T01:34:19.743Z,16.35
2019-04-23T01:35:33.536Z,16.32
2019-04-23T01:36:28.113Z,16.31
2019-04-23T01:37:37.021Z,16.33
2019-04-23T01:38:49.942Z,16.33
2019-04-23T01:39:50.826Z,16.30
2019-04-23T01:41:07.801Z,16.30
2019-04-23T01:42:08.810Z,16.31
2019-04-23T01:43:05.701Z,16.29
2019-04-23T01:44:13.836Z,16.27
2019-04-23T01:45:23.383Z,16.26
2019-04-23T01:46:21.781Z,16.30
2019-04-23T01:47:35.508Z,16.27
2019-04-23T01:48:42.356Z,16.28
2019-04-23T01:49:45.236Z,16.26
2019-04-23T01:50:53.823Z,16.26
2019-04-23T01:51:55.747Z,16.24
2019-04-23T01:54:06.537Z,16.23
2019-04-23T01:55:15.281Z,16.23
2019-04-23T01:56:20.351Z,16.23
2019-04-23T01:57:22.873Z,16.23
2019-04-23T01:59:39.225Z,16.21
2019-04-23T02:00:41.035Z,16.19
2019-04-23T02:02:57.855Z,16.19
2019-04-23T02:04:05.741Z,16.16
2019-04-23T02:05:09.925Z,16.19
2019-04-23T02:06:16.583Z,16.17
2019-04-23T02:07:25.846Z,16.14
2019-04-23T02:08:20.930Z,16.14
2019-04-23T02:09:37.259Z,16.14
2019-04-23T02:11:37.066Z,16.10
2019-04-23T02:14:00.266Z,16.09
2019-04-23T02:15:05.104Z,16.11
2019-04-23T02:16:05.097Z,16.09
2019-04-23T02:17:31.247Z,16.11
2019-04-23T02:18:16.332Z,16.08
2019-04-23T02:19:23.297Z,16.06
2019-04-23T02:20:39.470Z,16.09
2019-04-23T02:21:41.352Z,16.07
2019-04-23T02:23:14.930Z,16.03
2019-04-23T02:24:15.967Z,16.00
2019-04-23T02:25:31.739Z,15.98
2019-04-23T02:26:27.776Z,15.96
2019-04-23T02:27:36.413Z,15.95
2019-04-23T02:28:47.667Z,15.84
2019-04-23T02:31:18.305Z,15.91
2019-04-23T02:32:03.304Z,15.91
2019-04-23T02:33:26.267Z,15.90
2019-04-23T02:34:25.777Z,15.87
2019-04-23T02:35:35.545Z,15.87
2019-04-23T02:36:29.484Z,15.87
2019-04-23T02:37:45.667Z,15.86
2019-04-23T02:38:46.269Z,15.84
2019-04-23T02:40:03.998Z,15.84
2019-04-23T02:41:03.678Z,15.84
2019-04-23T02:45:16.756Z,15.79
2019-04-23T02:46:09.016Z,15.79
2019-04-23T02:47:42.092Z,15.77
2019-04-23T02:51:54.603Z,15.76
2019-04-23T02:55:17.236Z,15.71
2019-04-23T02:56:24.238Z,15.71
2019-04-23T02:57:24.110Z,15.70
2019-04-23T02:58:41.974Z,15.69
2019-04-23T03:00:07.882Z,15.68
2019-04-23T03:02:15.563Z,15.64
2019-04-23T03:03:06.138Z,15.64
2019-04-23T03:05:36.033Z,15.62
2019-04-23T03:07:39.341Z,15.61
2019-04-23T03:08:39.952Z,15.60
2019-04-23T03:09:47.745Z,15.60
2019-04-23T03:10:59.736Z,15.61
2019-04-23T03:11:56.778Z,15.58
2019-04-23T03:13:12.320Z,15.57
2019-04-23T03:14:09.429Z,15.55
2019-04-23T03:15:32.068Z,15.55
2019-04-23T03:16:56.576Z,15.55
2019-04-23T03:18:25.830Z,15.54
2019-04-23T03:19:18.806Z,15.50
2019-04-23T03:20:32.961Z,15.44
2019-04-23T03:23:29.063Z,15.44
2019-04-23T03:24:45.820Z,15.40
2019-04-23T03:25:35.923Z,15.41
2019-04-23T03:27:56.469Z,15.41
2019-04-23T03:29:16.848Z,15.41
2019-04-23T03:30:18.879Z,15.40
2019-04-23T03:37:55.931Z,15.37
2019-04-23T03:39:07.537Z,15.36
2019-04-23T03:42:22.339Z,15.35
2019-04-23T03:47:52.517Z,15.34
2019-04-23T03:50:08.738Z,15.32
2019-04-23T03:51:02.992Z,15.30
2019-04-23T03:52:25.390Z,15.32
2019-04-23T03:53:29.856Z,15.28
2019-04-23T03:54:34.243Z,15.29
2019-04-23T03:56:52.595Z,15.28
2019-04-23T03:57:39.336Z,15.25
2019-04-23T03:58:47.540Z,15.24
2019-04-23T04:00:03.470Z,15.21
2019-04-23T04:02:19.655Z,15.21
2019-04-23T04:03:41.967Z,15.19
2019-04-23T04:06:45.366Z,15.18
2019-04-23T04:08:05.062Z,15.18
2019-04-23T04:08:47.422Z,15.18
2019-04-23T04:09:49.644Z,15.19
2019-04-23T04:11:04.142Z,15.19
2019-04-23T04:12:07.828Z,15.19
2019-04-23T04:13:11.890Z,15.18
2019-04-23T04:14:25.306Z,15.20
2019-04-23T04:15:31.332Z,15.22
2019-04-23T04:16:28.266Z,15.22
2019-04-23T04:18:44.388Z,15.22
2019-04-23T04:19:47.363Z,15.21
2019-04-23T04:24:22.365Z,15.21
2019-04-23T04:25:14.589Z,15.21
2019-04-23T04:26:29.180Z,15.21
2019-04-23T04:28:39.277Z,15.23
2019-04-23T04:29:47.434Z,15.22
2019-04-23T04:30:54.356Z,15.23
2019-04-23T04:31:54.814Z,15.22
2019-04-23T04:33:11.821Z,15.23
2019-04-23T04:34:10.714Z,15.24
2019-04-23T04:35:18.851Z,15.23
2019-04-23T04:39:37.623Z,15.27
2019-04-23T04:40:39.550Z,15.26
2019-04-23T04:41:55.555Z,15.26
2019-04-23T04:44:07.254Z,15.30
2019-04-23T04:46:25.367Z,15.33
2019-04-23T04:48:18.055Z,15.33
2019-04-23T04:50:37.051Z,15.35
2019-04-23T04:52:47.039Z,15.34
2019-04-23T04:54:08.248Z,15.35
2019-04-23T04:54:49.770Z,15.35
2019-04-23T04:56:07.717Z,15.36
2019-04-23T04:57:12.915Z,15.37
2019-04-23T04:58:13.044Z,15.39
2019-04-23T04:59:13.972Z,15.39
2019-04-23T05:02:55.401Z,15.41
2019-04-23T05:04:55.989Z,15.43
2019-04-23T05:06:11.480Z,15.46
2019-04-23T05:08:05.072Z,15.49
2019-04-23T05:09:16.901Z,15.49
2019-04-23T05:12:36.264Z,15.56
2019-04-23T05:14:52.681Z,15.59
2019-04-23T05:15:45.073Z,15.51
2019-04-23T05:16:52.723Z,15.61
2019-04-23T05:18:25.361Z,15.63
2019-04-23T05:19:29.843Z,15.65
2019-04-23T05:20:26.058Z,15.67
2019-04-23T05:21:40.938Z,15.69
2019-04-23T05:22:54.374Z,15.70
2019-04-23T05:24:45.186Z,15.76
2019-04-23T05:25:49.935Z,15.78
2019-04-23T05:27:01.100Z,15.80
2019-04-23T05:28:25.015Z,15.83
2019-04-23T05:29:27.582Z,15.86
2019-04-23T05:30:29.335Z,15.87
2019-04-23T05:31:23.600Z,15.90
2019-04-23T05:32:27.093Z,15.93
2019-04-23T05:33:43.412Z,15.92
2019-04-23T05:34:42.372Z,15.93
2019-04-23T05:36:06.013Z,15.95
2019-04-23T05:37:00.100Z,15.99
2019-04-23T05:40:25.403Z,16.05
2019-04-23T05:41:22.220Z,16.06
2019-04-23T05:42:26.137Z,16.07
2019-04-23T05:43:38.530Z,16.11
2019-04-23T05:44:44.342Z,16.13
2019-04-23T05:45:43.801Z,16.15
2019-04-23T05:46:44.881Z,16.18
2019-04-23T05:47:58.660Z,16.20
2019-04-23T05:48:59.609Z,16.21
2019-04-23T05:50:12.712Z,16.24
2019-04-23T05:51:23.643Z,16.27
2019-04-23T05:52:16.084Z,16.30
2019-04-23T05:53:27.377Z,16.29
2019-04-23T05:55:39.929Z,16.35
2019-04-23T05:56:40.220Z,16.37
2019-04-23T05:57:43.787Z,16.40
2019-04-23T05:59:03.689Z,16.44
2019-04-23T05:59:54.846Z,16.47
2019-04-23T06:02:41.950Z,16.54
2019-04-23T06:03:41.921Z,16.58
2019-04-23T06:05:03.788Z,16.62
2019-04-23T06:05:54.198Z,16.64
2019-04-23T06:08:27.015Z,16.67
2019-04-23T06:09:26.533Z,16.70
2019-04-23T06:10:18.131Z,16.73
2019-04-23T06:11:34.882Z,16.76
2019-04-23T06:12:31.877Z,16.77
2019-04-23T06:13:49.235Z,16.79
2019-04-23T06:15:45.101Z,16.85
2019-04-23T06:18:01.757Z,16.88
2019-04-23T06:19:11.156Z,16.91
2019-04-23T06:20:22.096Z,16.94
2019-04-23T06:21:17.258Z,16.97
2019-04-23T06:22:30.044Z,17.00
2019-04-23T06:27:54.352Z,17.14
2019-04-23T06:29:10.354Z,17.19
2019-04-23T06:30:01.100Z,17.22
2019-04-23T06:31:13.784Z,17.22
2019-04-23T06:32:13.236Z,17.23
2019-04-23T06:34:42.915Z,17.27
2019-04-23T06:35:36.276Z,17.29
2019-04-23T06:36:37.160Z,17.33
2019-04-23T06:38:13.610Z,17.38
2019-04-23T06:39:00.249Z,17.42
2019-04-23T06:41:08.625Z,17.49
2019-04-23T06:42:08.419Z,17.51
2019-04-23T06:43:38.784Z,17.55
2019-04-23T06:44:37.761Z,17.57
2019-04-23T06:45:45.996Z,17.57
2019-04-23T06:46:56.788Z,17.62
2019-04-23T06:48:01.886Z,17.65
2019-04-23T06:49:02.013Z,17.69
2019-04-23T06:50:05.050Z,17.71
2019-04-23T06:51:20.142Z,17.74
2019-04-23T06:53:24.627Z,17.78
2019-04-23T06:55:47.438Z,17.85
2019-04-23T06:56:51.056Z,17.87
2019-04-23T06:57:54.148Z,17.91
2019-04-23T06:59:02.454Z,17.93
2019-04-23T07:03:23.250Z,18.00
2019-04-23T07:06:05.364Z,18.08
2019-04-23T07:08:02.946Z,18.14
2019-04-23T07:09:10.682Z,18.18
2019-04-23T07:10:18.420Z,18.21
2019-04-23T07:11:28.789Z,18.26
2019-04-23T07:12:41.168Z,18.31
2019-04-23T07:13:44.927Z,18.37
2019-04-23T07:14:46.284Z,18.42
2019-04-23T07:16:01.178Z,18.49
2019-04-23T07:16:52.715Z,18.54
2019-04-23T07:18:02.005Z,18.59
2019-04-23T07:19:11.160Z,18.65
2019-04-23T07:20:15.230Z,18.73
2019-04-23T07:21:20.202Z,18.77
2019-04-23T07:23:41.711Z,18.85
2019-04-23T07:24:27.613Z,18.90
2019-04-23T07:25:43.638Z,18.95
2019-04-23T07:26:42.228Z,18.98
2019-04-23T07:27:52.426Z,19.00
2019-04-23T07:30:10.423Z,19.04
2019-04-23T07:31:19.073Z,19.06
2019-04-23T07:32:11.864Z,19.08
2019-04-23T07:33:19.076Z,19.11
2019-04-23T07:34:33.837Z,19.13
2019-04-23T07:35:32.747Z,19.14
2019-04-23T07:37:49.945Z,19.10
2019-04-23T07:44:36.858Z,19.03
2019-04-23T07:45:58.353Z,19.02
2019-04-23T07:48:13.399Z,19.01
2019-04-23T07:49:15.135Z,19.04
2019-04-23T07:51:31.535Z,19.07
2019-04-23T07:53:39.905Z,19.09
2019-04-23T07:55:56.884Z,19.15
2019-04-23T07:57:02.977Z,19.11
2019-04-23T07:59:14.246Z,19.05
2019-04-23T08:00:18.162Z,19.05
2019-04-23T08:01:18.360Z,19.05
2019-04-23T08:02:38.405Z,19.16
2019-04-23T08:03:51.179Z,19.08
2019-04-23T08:05:04.901Z,19.03
2019-04-23T08:05:42.501Z,19.05
2019-04-23T08:06:52.115Z,19.02
2019-04-23T08:07:55.765Z,19.04
2019-04-23T08:09:04.420Z,19.13
2019-04-23T08:10:09.031Z,19.14
2019-04-23T08:12:25.132Z,19.17
2019-04-23T08:13:30.962Z,19.20
2019-04-23T08:14:42.624Z,19.22
2019-04-23T08:15:42.923Z,19.23
2019-04-23T08:16:58.201Z,19.25
2019-04-23T08:17:50.503Z,19.30
2019-04-23T08:19:08.075Z,19.32
2019-04-23T08:21:10.442Z,19.34
2019-04-23T08:23:44.959Z,19.38
2019-04-23T08:25:12.468Z,19.43
2019-04-23T08:27:51.522Z,19.40
2019-04-23T08:30:00.535Z,19.42
2019-04-23T08:31:14.165Z,19.45
2019-04-23T08:32:15.064Z,19.48
2019-04-23T08:33:23.356Z,19.59
2019-04-23T08:34:43.306Z,19.55
2019-04-23T08:35:36.181Z,19.54
2019-04-23T08:36:42.340Z,19.56
2019-04-23T08:38:16.092Z,19.60
2019-04-23T08:38:53.317Z,19.63
2019-04-23T08:40:13.311Z,19.59
2019-04-23T08:41:13.783Z,19.70
2019-04-23T08:42:28.780Z,19.72
2019-04-23T08:43:34.787Z,19.77
2019-04-23T08:45:58.070Z,19.83
2019-04-23T08:47:20.265Z,19.79
2019-04-23T08:49:32.152Z,19.82
2019-04-23T08:50:32.268Z,19.85
2019-04-23T08:51:44.076Z,19.88
2019-04-23T08:52:43.104Z,19.90
2019-04-23T08:53:48.117Z,19.93
2019-04-23T08:55:10.912Z,19.93
2019-04-23T08:56:15.462Z,19.96
2019-04-23T08:57:08.761Z,19.98
2019-04-23T08:58:20.547Z,20.00
2019-04-23T08:59:26.131Z,20.03
2019-04-23T09:00:31.710Z,20.06
2019-04-23T09:01:37.641Z,20.13
2019-04-23T09:03:40.928Z,20.18
2019-04-23T09:04:54.230Z,20.20
2019-04-23T09:07:04.433Z,20.23
2019-04-23T09:09:13.242Z,20.27
2019-04-23T09:10:22.637Z,20.32
2019-04-23T09:11:36.994Z,20.37
2019-04-23T09:14:46.563Z,20.39
2019-04-23T09:15:49.811Z,20.43
2019-04-23T09:16:58.252Z,20.45
2019-04-23T09:18:06.307Z,20.47
2019-04-23T09:19:11.248Z,20.52
2019-04-23T09:22:33.417Z,20.56
2019-04-23T09:23:48.915Z,20.61
2019-04-23T09:24:40.447Z,20.61
2019-04-23T09:26:51.699Z,20.66
2019-04-23T09:27:54.412Z,20.67
2019-04-23T09:28:56.882Z,20.66
2019-04-23T09:30:06.878Z,20.67
2019-04-23T09:32:47.260Z,20.69
2019-04-23T09:34:04.930Z,20.70
2019-04-23T09:35:32.353Z,20.70
2019-04-23T09:36:59.873Z,20.73
2019-04-23T09:38:19.561Z,20.69
2019-04-23T09:39:37.710Z,20.69
2019-04-23T09:41:09.778Z,20.72
2019-04-23T09:42:14.732Z,20.76
2019-04-23T09:43:47.356Z,20.81
2019-04-23T09:45:28.028Z,20.84
2019-04-23T09:46:25.815Z,20.84
2019-04-23T09:48:06.730Z,20.77
2019-04-23T09:49:16.176Z,20.87
2019-04-23T09:51:17.289Z,20.90
2019-04-23T09:52:27.648Z,20.94
2019-04-23T09:54:41.815Z,21.01
2019-04-23T09:55:40.422Z,21.06
2019-04-23T09:56:50.856Z,21.11
2019-04-23T09:57:59.765Z,21.17
2019-04-23T09:59:06.683Z,21.22
2019-04-23T10:00:12.607Z,21.25
2019-04-23T10:01:25.918Z,21.32
2019-04-23T10:02:22.185Z,21.33
2019-04-23T10:03:26.934Z,21.36
2019-04-23T10:04:33.078Z,21.42
2019-04-23T10:05:33.948Z,21.49
2019-04-23T10:06:32.629Z,21.55
2019-04-23T10:07:44.515Z,21.60
2019-04-23T10:08:47.568Z,21.74
2019-04-23T10:09:48.356Z,21.69
2019-04-23T10:10:53.303Z,21.77
2019-04-23T10:11:58.644Z,21.79
2019-04-23T10:13:04.088Z,21.86
2019-04-23T10:14:08.613Z,21.82
2019-04-23T10:15:21.601Z,21.82
2019-04-23T10:16:21.401Z,21.87
2019-04-23T10:17:24.458Z,21.91
2019-04-23T10:18:29.137Z,21.96
2019-04-23T10:19:34.784Z,22.05
2019-04-23T10:20:40.319Z,22.14
2019-04-23T10:21:44.362Z,22.16
2019-04-23T10:22:50.320Z,22.20
2019-04-23T10:23:55.058Z,22.21
2019-04-23T10:24:59.544Z,22.23
2019-04-23T10:26:03.968Z,22.27
2019-04-23T10:27:08.391Z,22.31
2019-04-23T10:28:20.895Z,22.34
2019-04-23T10:29:29.826Z,22.39
2019-04-23T10:30:34.230Z,22.44
2019-04-23T10:31:40.043Z,22.52
2019-04-23T10:32:45.305Z,22.62
2019-04-23T10:33:50.381Z,22.62
2019-04-23T10:35:06.769Z,22.64
2019-04-23T10:36:06.362Z,22.65
2019-04-23T10:37:07.295Z,22.69
2019-04-23T10:38:14.854Z,22.75
2019-04-23T10:39:22.063Z,22.75
2019-04-23T10:40:28.126Z,22.76
2019-04-23T10:41:30.623Z,22.79
2019-04-23T10:42:38.493Z,22.82
2019-04-23T10:43:43.951Z,22.88
2019-04-23T10:45:10.839Z,22.88
2019-04-23T10:46:53.447Z,22.91
2019-04-23T10:48:33.426Z,22.97
2019-04-23T10:50:00.265Z,22.99
2019-04-23T10:51:08.883Z,22.95
2019-04-23T10:55:38.507Z,23.19
2019-04-23T10:56:40.874Z,23.25
2019-04-23T10:57:39.262Z,23.27
2019-04-23T10:58:48.598Z,23.34
2019-04-23T10:59:47.393Z,23.39
2019-04-23T11:01:05.126Z,23.41
2019-04-23T11:03:32.069Z,23.38
2019-04-23T11:04:39.435Z,23.42
2019-04-23T11:05:35.645Z,23.40
2019-04-23T11:06:42.692Z,23.43
2019-04-23T11:07:42.297Z,23.40
2019-04-23T11:08:44.092Z,23.42
2019-04-23T11:10:03.319Z,23.51
2019-04-23T11:11:09.302Z,23.52
2019-04-23T11:12:32.983Z,23.51
2019-04-23T11:13:43.404Z,23.56
2019-04-23T11:14:58.318Z,23.56
2019-04-23T11:16:08.964Z,23.63
2019-04-23T11:16:57.643Z,23.63
2019-04-23T11:17:52.412Z,23.67
2019-04-23T11:19:09.304Z,23.72
2019-04-23T11:21:23.954Z,23.74
2019-04-23T11:23:31.324Z,23.79
2019-04-23T11:25:44.351Z,23.75
2019-04-23T11:26:52.841Z,23.75
2019-04-23T11:27:58.521Z,23.75
2019-04-23T11:29:01.957Z,23.73
2019-04-23T11:30:21.143Z,23.73
2019-04-23T11:31:23.876Z,23.71
2019-04-23T11:33:30.009Z,23.81
2019-04-23T11:34:50.399Z,23.81
2019-04-23T11:35:47.804Z,23.82
2019-04-23T11:36:54.317Z,23.81
2019-04-23T11:40:12.352Z,23.85
2019-04-23T11:41:19.253Z,23.86
2019-04-23T11:43:32.956Z,23.90
2019-04-23T11:44:34.218Z,23.84
2019-04-23T11:45:48.485Z,23.81
2019-04-23T11:48:21.909Z,23.81
2019-04-23T11:50:13.932Z,23.84
2019-04-23T11:53:19.757Z,23.86
2019-04-23T11:54:24.194Z,23.91
2019-04-23T11:55:40.838Z,23.91
2019-04-23T12:00:05.503Z,23.94
2019-04-23T12:02:45.252Z,23.92
2019-04-23T12:04:08.598Z,23.92
2019-04-23T12:05:41.228Z,23.86
2019-04-23T12:08:01.085Z,23.89
2019-04-23T12:09:17.414Z,23.96
2019-04-23T12:10:34.907Z,23.96
2019-04-23T12:14:10.262Z,24.08
2019-04-23T12:16:20.117Z,24.12
2019-04-23T12:20:36.116Z,24.20
2019-04-23T12:21:53.183Z,24.21
2019-04-23T12:24:07.445Z,24.24
2019-04-23T12:26:19.537Z,24.29
2019-04-23T12:27:23.202Z,24.36
2019-04-23T12:28:26.383Z,24.36
2019-04-23T12:29:33.886Z,24.37
2019-04-23T12:30:39.572Z,24.37
2019-04-23T12:31:47.995Z,24.40
2019-04-23T12:32:57.294Z,24.40
2019-04-23T12:33:57.386Z,24.40
2019-04-23T12:35:04.304Z,24.47
2019-04-23T12:36:28.664Z,24.51
2019-04-23T12:37:40.955Z,24.52
2019-04-23T12:38:48.898Z,24.57
2019-04-23T12:40:00.132Z,24.57
2019-04-23T12:40:56.414Z,24.69
2019-04-23T12:42:25.126Z,24.69
2019-04-23T12:44:17.913Z,24.82
2019-04-23T12:45:27.026Z,24.86
2019-04-23T12:46:29.796Z,25.04
2019-04-23T12:47:50.286Z,25.15
2019-04-23T12:48:49.338Z,25.15
2019-04-23T12:50:41.859Z,25.24
2019-04-23T12:52:12.028Z,25.37
2019-04-23T12:54:38.460Z,25.50
2019-04-23T12:56:42.204Z,25.54
2019-04-23T12:57:40.247Z,25.57
2019-04-23T12:58:32.351Z,25.64
2019-04-23T13:00:46.037Z,25.80
2019-04-23T13:02:03.585Z,25.86
2019-04-23T13:03:06.597Z,25.95
2019-04-23T13:04:09.669Z,26.01
2019-04-23T13:05:14.444Z,26.06
2019-04-23T13:06:23.652Z,26.07
2019-04-23T13:07:33.728Z,26.11
2019-04-23T13:08:39.217Z,26.15
2019-04-23T13:09:49.549Z,26.23
2019-04-23T13:10:48.146Z,26.31
2019-04-23T13:11:57.769Z,26.40
2019-04-23T13:13:09.463Z,26.38
2019-04-23T13:14:07.037Z,26.48
2019-04-23T13:16:25.365Z,26.57
2019-04-23T13:18:34.069Z,26.66
2019-04-23T13:23:05.202Z,26.68
2019-04-23T13:24:15.719Z,26.73
2019-04-23T13:25:44.797Z,26.73
2019-04-23T13:26:44.630Z,26.77
2019-04-23T13:28:51.270Z,26.83
2019-04-23T13:30:17.203Z,26.83
2019-04-23T13:32:24.285Z,26.94
2019-04-23T13:33:32.255Z,26.99
2019-04-23T13:34:37.056Z,26.99
2019-04-23T13:35:50.608Z,27.06
2019-04-23T13:40:17.581Z,27.23
2019-04-23T13:41:13.377Z,27.23
2019-04-23T13:42:15.089Z,27.35
2019-04-23T13:43:24.384Z,27.29
2019-04-23T13:44:26.148Z,27.26
2019-04-23T13:45:53.606Z,27.26
2019-04-23T13:46:31.331Z,27.26
2019-04-23T13:47:48.587Z,27.27
2019-04-23T13:48:36.083Z,27.23
2019-04-23T13:49:55.048Z,27.23
2019-04-23T13:51:03.361Z,27.27
2019-04-23T13:52:05.629Z,27.30
2019-04-23T13:54:17.976Z,27.30
2019-04-23T13:55:14.695Z,27.36
2019-04-23T13:59:44.503Z,27.42
2019-04-23T14:01:00.659Z,27.36
2019-04-23T14:02:03.676Z,27.34
2019-04-23T14:03:03.190Z,27.34
2019-04-23T14:04:39.011Z,27.34
2019-04-23T14:05:49.540Z,27.34
2019-04-23T14:06:57.531Z,27.31
2019-04-23T14:08:04.560Z,27.27
2019-04-23T14:09:14.778Z,27.23
2019-04-23T14:10:18.240Z,27.23
2019-04-23T14:11:24.816Z,27.23
2019-04-23T14:12:40.306Z,27.19
2019-04-23T14:14:53.233Z,27.13
2019-04-23T14:17:02.252Z,27.11
2019-04-23T14:18:29.050Z,27.08
2019-04-23T14:19:04.457Z,27.02
2019-04-23T14:20:15.330Z,27.03
2019-04-23T14:23:59.137Z,26.99
2019-04-23T14:24:45.233Z,26.95
2019-04-23T14:26:04.963Z,26.96
2019-04-23T14:26:48.304Z,26.93
2019-04-23T14:28:07.378Z,26.93
2019-04-23T14:29:02.149Z,26.98
2019-04-23T14:30:16.560Z,26.99
2019-04-23T14:31:13.480Z,27.01
2019-04-23T14:32:22.381Z,27.03
2019-04-23T14:33:37.926Z,27.04
2019-04-23T14:34:34.867Z,27.02
2019-04-23T14:36:47.802Z,27.10
2019-04-23T14:38:01.934Z,27.02
2019-04-23T14:38:57.354Z,27.02
2019-04-23T14:40:22.118Z,27.00
2019-04-23T14:42:33.329Z,26.95
2019-04-23T14:43:31.399Z,26.98
2019-04-23T14:44:44.441Z,26.97
2019-04-23T14:46:23.738Z,26.98
2019-04-23T14:47:07.432Z,26.93
2019-04-23T14:48:14.387Z,26.93
2019-04-23T14:49:19.086Z,26.90
2019-04-23T14:50:34.869Z,26.85
2019-04-23T14:51:39.290Z,26.90
2019-04-23T14:52:50.505Z,26.90
2019-04-23T14:55:35.916Z,26.95
2019-04-23T14:56:00.455Z,26.95
2019-04-23T14:58:31.045Z,26.92
2019-04-23T14:59:31.605Z,26.92
2019-04-23T15:02:45.096Z,27.00
2019-04-23T15:03:46.874Z,26.98
2019-04-23T15:05:01.995Z,26.94
2019-04-23T15:07:10.820Z,26.96
2019-04-23T15:08:15.296Z,26.87
2019-04-23T15:10:26.332Z,26.89
2019-04-23T15:11:36.912Z,26.89
2019-04-23T15:14:51.229Z,26.86
2019-04-23T15:15:53.212Z,26.85
2019-04-23T15:17:00.118Z,26.83
2019-04-23T15:18:07.470Z,26.82
2019-04-23T15:21:47.343Z,26.77
2019-04-23T15:22:50.553Z,26.77
2019-04-23T15:25:07.008Z,26.74
2019-04-23T15:26:37.205Z,26.71
2019-04-23T15:28:58.654Z,26.70
2019-04-23T15:30:14.107Z,26.74
2019-04-23T15:32:43.867Z,26.71
2019-04-23T15:33:55.262Z,26.69
2019-04-23T15:34:48.905Z,26.53
2019-04-23T15:36:03.745Z,26.63
2019-04-23T15:37:14.061Z,26.63
2019-04-23T15:39:17.029Z,26.58
2019-04-23T15:40:23.396Z,26.52
2019-04-23T15:43:41.779Z,26.47
2019-04-23T15:44:41.212Z,26.52
2019-04-23T15:45:54.785Z,26.52
2019-04-23T15:46:58.173Z,26.48
2019-04-23T15:48:03.539Z,26.42
2019-04-23T15:50:19.920Z,26.38
2019-04-23T15:51:20.355Z,26.35
2019-04-23T15:52:22.875Z,26.32
2019-04-23T15:53:17.633Z,26.36
2019-04-23T15:54:35.720Z,26.32
2019-04-23T15:55:43.841Z,26.29
2019-04-23T15:56:50.101Z,26.28
2019-04-23T15:59:58.796Z,26.21
2019-04-23T16:01:21.823Z,26.21
2019-04-23T16:01:53.289Z,26.23
2019-04-23T16:02:57.422Z,26.22
2019-04-23T16:04:03.418Z,26.21
2019-04-23T16:05:09.395Z,26.17
2019-04-23T16:06:19.010Z,26.17
2019-04-23T16:07:35.172Z,26.15
2019-04-23T16:10:04.201Z,26.14
2019-04-23T16:11:17.147Z,26.10
2019-04-23T16:12:03.207Z,26.10
2019-04-23T16:13:27.611Z,26.10
2019-04-23T16:14:42.431Z,26.10
2019-04-23T16:15:32.448Z,26.08
2019-04-23T16:16:46.216Z,26.07
2019-04-23T16:17:41.740Z,26.05
2019-04-23T16:19:17.666Z,26.05
2019-04-23T16:21:29.276Z,25.91
2019-04-23T16:22:26.843Z,25.95
2019-04-23T16:23:35.556Z,25.93
2019-04-23T16:24:43.299Z,25.93
2019-04-23T16:25:43.202Z,25.92
2019-04-23T16:26:57.233Z,25.91
2019-04-23T16:31:24.120Z,25.89
2019-04-23T16:32:30.444Z,25.90
2019-04-23T16:33:30.209Z,25.87
2019-04-23T16:34:44.933Z,25.86
2019-04-23T16:36:01.913Z,25.86
2019-04-23T16:37:02.576Z,25.82
2019-04-23T16:39:10.766Z,25.79
2019-04-23T16:41:24.419Z,25.77
2019-04-23T16:42:30.067Z,25.76
2019-04-23T16:43:35.264Z,25.73
2019-04-23T16:45:07.591Z,25.70
2019-04-23T16:45:51.805Z,25.67
2019-04-23T16:48:06.662Z,25.62
2019-04-23T16:50:19.382Z,25.57
2019-04-23T16:52:26.652Z,25.54
2019-04-23T16:53:31.511Z,25.52
2019-04-23T16:54:39.150Z,25.49
2019-04-23T16:55:49.942Z,25.46
2019-04-23T16:58:01.498Z,25.43
2019-04-23T16:59:08.465Z,25.40
2019-04-23T17:01:19.522Z,25.38
2019-04-23T17:02:21.411Z,25.35
2019-04-23T17:03:35.995Z,25.31
2019-04-23T17:04:30.736Z,25.27
2019-04-23T17:05:44.312Z,25.25
2019-04-23T17:06:48.509Z,25.24
2019-04-23T17:08:06.723Z,25.23
2019-04-23T17:08:57.763Z,25.23
2019-04-23T17:10:08.125Z,25.23
2019-04-23T17:12:13.754Z,25.16
2019-04-23T17:13:21.206Z,25.05
2019-04-23T17:15:34.521Z,25.10
2019-04-23T17:17:40.945Z,25.06
2019-04-23T17:18:56.233Z,25.04
2019-04-23T17:20:00.933Z,25.02
2019-04-23T17:21:04.749Z,24.99
2019-04-23T17:22:04.626Z,24.97
2019-04-23T17:23:28.973Z,24.97
2019-04-23T17:25:26.557Z,24.88
2019-04-23T17:26:29.394Z,24.86
2019-04-23T17:27:38.654Z,24.84
2019-04-23T17:29:03.571Z,24.83
2019-04-23T17:29:49.158Z,24.83
2019-04-23T17:31:20.768Z,24.79
2019-04-23T17:32:10.336Z,24.76
2019-04-23T17:33:31.460Z,24.74
2019-04-23T17:34:30.774Z,24.67
2019-04-23T17:35:42.522Z,24.59
2019-04-23T17:36:57.989Z,24.59
2019-04-23T17:38:07.717Z,24.59
2019-04-23T17:39:18.121Z,24.56
2019-04-23T17:40:42.643Z,24.56
2019-04-23T17:42:22.999Z,24.55
2019-04-23T17:43:41.598Z,24.39
2019-04-23T17:45:32.150Z,24.38
2019-04-23T17:47:52.080Z,24.31
2019-04-23T17:48:59.546Z,24.28
2019-04-23T17:50:05.739Z,24.28
2019-04-23T17:51:11.035Z,24.28
2019-04-23T17:52:22.450Z,24.26
2019-04-23T17:54:34.308Z,24.14
2019-04-23T17:55:33.227Z,24.20
2019-04-23T17:56:57.846Z,24.21
2019-04-23T17:57:42.089Z,24.21
2019-04-23T17:58:58.635Z,24.15
2019-04-23T18:00:12.038Z,24.15
2019-04-23T18:02:44.228Z,24.09
2019-04-23T18:03:27.171Z,24.09
2019-04-23T18:05:33.222Z,24.06
2019-04-23T18:06:41.054Z,24.06
2019-04-23T18:08:01.413Z,24.05
2019-04-23T18:10:15.004Z,23.94
2019-04-23T18:11:12.777Z,23.87
2019-04-23T18:12:25.428Z,23.87
2019-04-23T18:13:22.866Z,23.91
2019-04-23T18:14:34.756Z,23.80
2019-04-23T18:15:17.400Z,23.84
2019-04-23T18:17:41.000Z,23.79
2019-04-23T18:18:59.149Z,23.77
2019-04-23T18:20:13.491Z,23.77
2019-04-23T18:21:36.226Z,23.72
2019-04-23T18:22:40.813Z,23.63
2019-04-23T18:24:12.953Z,23.60
2019-04-23T18:25:08.274Z,23.54